Time;durP1;ratioP1;P1;durP2;ratioP2;P2;SDS_P1;SDS_P2;PMS_P1;PMS_P2;Temp;Humidity;BMP_temperature;BMP_pressure;BME280_temperature;BME280_humidity;BME280_pressure;Samples;Min_cycle;Max_cycle;Signal;HPM_P1;HPM_P2
2024/02/28 00:02:18;;;;;;;7.50;2.92;;;8.10;99.90;;;;;;5013925;28;20048;-63
2024/02/28 00:04:45;;;;;;;7.35;2.97;;;8.10;99.90;;;;;;5013336;28;20049;-63
2024/02/28 00:07:12;;;;;;;8.80;3.30;;;8.10;99.90;;;;;;5013316;28;20120;-63
2024/02/28 00:09:39;;;;;;;8.38;3.47;;;8.10;99.90;;;;;;5011709;28;20438;-63
2024/02/28 00:12:05;;;;;;;9.65;3.72;;;8.10;99.90;;;;;;5013554;28;20052;-63
2024/02/28 00:14:32;;;;;;;9.27;3.05;;;8.00;99.90;;;;;;5013301;28;20604;-63
2024/02/28 00:16:59;;;;;;;9.25;2.83;;;8.00;99.90;;;;;;5013240;28;20046;-62
2024/02/28 00:19:26;;;;;;;7.82;2.70;;;8.00;99.90;;;;;;5012998;28;20061;-62
2024/02/28 00:21:52;;;;;;;7.45;2.67;;;7.90;99.90;;;;;;5013393;28;20509;-63
2024/02/28 00:24:19;;;;;;;8.15;3.17;;;7.90;99.90;;;;;;5012904;28;20041;-62
2024/02/28 00:26:46;;;;;;;7.30;2.40;;;7.90;99.90;;;;;;5012228;28;20077;-62
2024/02/28 00:29:13;;;;;;;7.88;2.50;;;7.90;99.90;;;;;;5013577;28;20053;-62
2024/02/28 00:31:40;;;;;;;7.53;2.45;;;7.90;99.90;;;;;;5013016;28;20044;-63
2024/02/28 00:34:08;;;;;;;9.18;2.38;;;8.00;99.90;;;;;;5012959;28;20072;-62
2024/02/28 00:36:35;;;;;;;9.50;2.53;;;8.00;99.90;;;;;;5013331;28;20205;-63
2024/02/28 00:39:17;;;;;;;6.85;2.45;;;7.90;99.90;;;;;;5013352;28;20092;-64
2024/02/28 00:41:44;;;;;;;9.68;2.45;;;8.00;99.90;;;;;;5013354;28;20058;-63
2024/02/28 00:44:11;;;;;;;10.10;2.78;;;8.00;99.90;;;;;;5013561;28;20046;-64
2024/02/28 00:46:38;;;;;;;12.32;3.03;;;8.00;99.90;;;;;;5012792;28;20046;-63
2024/02/28 00:49:04;;;;;;;8.57;2.58;;;8.00;99.90;;;;;;5011767;28;20049;-63
2024/02/28 00:51:31;;;;;;;11.00;3.28;;;7.90;99.90;;;;;;5013141;28;20048;-63
2024/02/28 00:53:58;;;;;;;8.25;2.58;;;7.90;99.90;;;;;;5013475;28;20052;-63
2024/02/28 00:56:27;;;;;;;11.23;3.38;;;7.90;99.90;;;;;;5013082;28;20546;-63
2024/02/28 00:58:53;;;;;;;11.23;2.78;;;7.90;99.90;;;;;;5017798;28;20462;-62
2024/02/28 01:01:20;;;;;;;8.32;2.85;;;7.80;99.90;;;;;;5033182;28;20076;-62
2024/02/28 01:03:47;;;;;;;12.60;3.08;;;7.80;99.90;;;;;;5032987;28;20100;-62
2024/02/28 01:06:15;;;;;;;7.68;2.58;;;7.80;99.90;;;;;;5032069;28;20496;-62
2024/02/28 01:08:43;;;;;;;10.05;2.70;;;7.80;99.90;;;;;;5033698;28;20048;-62
2024/02/28 01:11:09;;;;;;;7.75;2.97;;;7.70;99.90;;;;;;5033778;28;20433;-62
2024/02/28 01:13:36;;;;;;;7.85;2.80;;;7.70;99.90;;;;;;5033330;28;20034;-62
2024/02/28 01:16:03;;;;;;;12.13;3.00;;;7.70;99.90;;;;;;5032972;28;20133;-62
2024/02/28 01:18:32;;;;;;;11.18;2.78;;;7.70;99.90;;;;;;5032991;28;20040;-62
2024/02/28 01:20:59;;;;;;;10.77;2.67;;;7.70;99.90;;;;;;5033935;28;20441;-62
2024/02/28 01:23:25;;;;;;;10.40;2.53;;;7.60;99.90;;;;;;5036508;28;20133;-62
2024/02/28 01:25:52;;;;;;;10.38;2.78;;;7.60;99.90;;;;;;5035819;28;20050;-63
2024/02/28 01:28:19;;;;;;;9.05;2.70;;;7.60;99.90;;;;;;5035859;28;20232;-62
2024/02/28 01:30:46;;;;;;;9.82;2.58;;;7.60;99.90;;;;;;5035880;28;20084;-63
2024/02/28 01:33:13;;;;;;;11.85;2.80;;;7.60;99.90;;;;;;5035959;28;20048;-63
2024/02/28 01:35:40;;;;;;;11.60;3.15;;;7.60;99.90;;;;;;5035799;28;20111;-63
2024/02/28 01:38:07;;;;;;;11.00;2.70;;;7.60;99.90;;;;;;5036018;28;20095;-62
2024/02/28 01:40:34;;;;;;;8.73;2.85;;;7.60;99.90;;;;;;5035634;28;20119;-62
2024/02/28 01:43:01;;;;;;;7.78;2.35;;;7.60;99.90;;;;;;5035911;28;20048;-62
2024/02/28 01:45:28;;;;;;;8.40;2.40;;;7.60;99.90;;;;;;5035709;28;20479;-62
2024/02/28 01:47:55;;;;;;;8.75;2.20;;;7.60;99.90;;;;;;5035618;28;20052;-62
2024/02/28 01:50:22;;;;;;;8.73;2.47;;;7.60;99.90;;;;;;5035884;28;20053;-62
2024/02/28 01:52:49;;;;;;;8.60;2.60;;;7.60;99.90;;;;;;5035760;28;20037;-63
2024/02/28 01:55:15;;;;;;;14.35;3.67;;;7.60;99.90;;;;;;5035662;28;20033;-62
2024/02/28 01:57:42;;;;;;;9.07;2.78;;;7.60;99.90;;;;;;5035466;28;20048;-63
2024/02/28 02:00:09;;;;;;;6.32;2.40;;;7.60;99.90;;;;;;5036026;28;20037;-63
2024/02/28 02:02:36;;;;;;;8.85;2.47;;;7.60;99.90;;;;;;5034695;28;20467;-62
2024/02/28 02:05:03;;;;;;;7.07;2.25;;;7.60;99.90;;;;;;5035335;28;20056;-63
2024/02/28 02:07:29;;;;;;;6.82;2.40;;;7.60;99.90;;;;;;5036020;28;20517;-63
2024/02/28 02:09:56;;;;;;;9.75;2.42;;;7.60;99.90;;;;;;5035402;28;20080;-63
2024/02/28 02:12:23;;;;;;;10.25;3.03;;;7.50;99.90;;;;;;5035260;28;20451;-62
2024/02/28 02:14:50;;;;;;;9.88;2.53;;;7.60;99.90;;;;;;5035169;28;20052;-62
2024/02/28 02:17:17;;;;;;;10.10;2.67;;;7.50;99.90;;;;;;5035700;28;20100;-62
2024/02/28 02:19:44;;;;;;;7.57;2.10;;;7.50;99.90;;;;;;5035712;28;20033;-62
2024/02/28 02:22:11;;;;;;;9.38;2.60;;;7.50;99.90;;;;;;5034556;28;20163;-62
2024/02/28 02:24:37;;;;;;;8.38;2.42;;;7.50;99.90;;;;;;5035191;28;20049;-62
2024/02/28 02:27:04;;;;;;;8.48;2.50;;;7.50;99.90;;;;;;5035231;28;20098;-62
2024/02/28 02:29:31;;;;;;;9.77;2.58;;;7.50;99.90;;;;;;5033686;28;20041;-62
2024/02/28 02:31:58;;;;;;;10.35;2.75;;;7.50;99.90;;;;;;5034558;28;20482;-62
2024/02/28 02:34:25;;;;;;;7.05;2.35;;;7.40;99.90;;;;;;5035422;28;20038;-63
2024/02/28 02:36:52;;;;;;;6.93;2.40;;;7.40;99.90;;;;;;5034983;28;20099;-63
2024/02/28 02:39:18;;;;;;;9.52;2.42;;;7.30;99.90;;;;;;5034897;28;20436;-62
2024/02/28 02:41:46;;;;;;;7.13;2.33;;;7.30;99.90;;;;;;5035131;28;20132;-62
2024/02/28 02:44:13;;;;;;;9.40;2.35;;;7.20;99.90;;;;;;5034984;28;20155;-61
2024/02/28 02:46:39;;;;;;;7.95;2.22;;;7.20;99.90;;;;;;5034922;28;20084;-62
2024/02/28 02:49:07;;;;;;;9.02;2.50;;;7.10;99.90;;;;;;5035035;28;20119;-62
2024/02/28 02:51:33;;;;;;;11.38;2.33;;;7.10;99.90;;;;;;5033317;28;20042;-62
2024/02/28 02:54:00;;;;;;;9.15;2.60;;;7.10;99.90;;;;;;5034460;28;20068;-62
2024/02/28 02:56:27;;;;;;;7.25;2.35;;;7.00;99.90;;;;;;5034700;28;20099;-62
2024/02/28 02:58:54;;;;;;;8.70;2.33;;;7.00;99.90;;;;;;5034823;28;20037;-61
2024/02/28 03:01:20;;;;;;;10.15;3.17;;;7.00;99.90;;;;;;5034539;28;20394;-62
2024/02/28 03:03:47;;;;;;;8.40;2.42;;;6.90;99.90;;;;;;5034903;28;20128;-61
2024/02/28 03:06:14;;;;;;;10.13;3.00;;;6.90;99.90;;;;;;5034477;28;20144;-62
2024/02/28 03:08:41;;;;;;;8.13;2.47;;;6.80;99.90;;;;;;5034749;28;20045;-62
2024/02/28 03:11:08;;;;;;;8.85;2.67;;;6.70;99.90;;;;;;5034414;28;20103;-62
2024/02/28 03:13:35;;;;;;;7.65;2.60;;;6.70;99.90;;;;;;5034648;28;20041;-62
2024/02/28 03:16:02;;;;;;;8.18;2.65;;;6.60;99.90;;;;;;5034313;28;20053;-63
2024/02/28 03:18:29;;;;;;;6.25;2.50;;;6.50;99.90;;;;;;5034578;28;20103;-62
2024/02/28 03:20:56;;;;;;;9.35;2.40;;;6.50;99.90;;;;;;5033983;28;20490;-62
2024/02/28 03:23:22;;;;;;;7.85;2.72;;;6.40;99.90;;;;;;5034302;28;20475;-62
2024/02/28 03:25:49;;;;;;;7.18;2.50;;;6.40;99.90;;;;;;5034132;28;20466;-60
2024/02/28 03:28:16;;;;;;;5.57;2.45;;;6.30;99.90;;;;;;5034409;28;20037;-59
2024/02/28 03:30:43;;;;;;;5.53;2.50;;;6.30;99.90;;;;;;5034217;28;20053;-60
2024/02/28 03:33:10;;;;;;;7.72;3.13;;;6.30;99.90;;;;;;5033637;28;20542;-61
2024/02/28 03:35:36;;;;;;;7.85;2.70;;;6.20;99.90;;;;;;5033573;28;20043;-60
2024/02/28 03:38:03;;;;;;;8.00;2.80;;;6.20;99.90;;;;;;5033608;28;20091;-61
2024/02/28 03:40:30;;;;;;;7.22;2.75;;;6.10;99.90;;;;;;5033803;28;20042;-60
2024/02/28 03:42:59;;;;;;;7.50;2.67;;;6.10;99.90;;;;;;5033445;28;20045;-60
2024/02/28 03:45:26;;;;;;;5.75;2.60;;;6.00;99.90;;;;;;5033759;28;20120;-61
2024/02/28 03:47:52;;;;;;;7.07;2.80;;;6.00;99.90;;;;;;5033412;28;20497;-60
2024/02/28 03:50:19;;;;;;;6.88;2.40;;;5.90;99.90;;;;;;5033479;28;20425;-60
2024/02/28 03:52:46;;;;;;;10.25;2.78;;;5.90;99.90;;;;;;5033808;28;20044;-60
2024/02/28 03:55:13;;;;;;;10.98;2.90;;;5.90;99.90;;;;;;5033668;28;20119;-61
2024/02/28 03:57:39;;;;;;;10.07;3.70;;;5.80;99.90;;;;;;5033442;28;20037;-60
2024/02/28 04:00:08;;;;;;;7.75;2.88;;;5.90;99.90;;;;;;5033392;28;20108;-60
2024/02/28 04:02:38;;;;;;;6.70;2.78;;;6.00;99.90;;;;;;5033447;28;20038;-60
2024/02/28 04:05:05;;;;;;;7.78;2.80;;;6.00;99.90;;;;;;5033304;28;21347;-61
2024/02/28 04:07:32;;;;;;;8.23;2.95;;;6.10;99.90;;;;;;5033829;28;20077;-61
2024/02/28 04:09:58;;;;;;;10.15;3.15;;;6.10;99.90;;;;;;5032419;28;20096;-61
2024/02/28 04:12:25;;;;;;;8.95;2.90;;;6.20;99.90;;;;;;5033645;28;20045;-61
2024/02/28 04:14:52;;;;;;;7.45;2.88;;;6.20;99.90;;;;;;5033191;28;20149;-61
2024/02/28 04:17:19;;;;;;;8.80;2.65;;;6.30;99.90;;;;;;5033593;28;20050;-61
2024/02/28 04:19:46;;;;;;;7.97;3.03;;;6.30;99.90;;;;;;5033233;28;20041;-61
2024/02/28 04:22:12;;;;;;;7.97;3.08;;;6.40;99.90;;;;;;5033543;28;20073;-61
2024/02/28 04:24:39;;;;;;;7.45;3.00;;;6.50;99.90;;;;;;5033108;28;20041;-61
2024/02/28 04:27:09;;;;;;;9.77;3.03;;;6.50;99.90;;;;;;5033419;28;20047;-61
2024/02/28 04:29:36;;;;;;;7.55;2.67;;;6.60;99.90;;;;;;5033584;28;20096;-61
2024/02/28 04:32:03;;;;;;;9.07;2.70;;;6.60;99.90;;;;;;5031723;28;20398;-61
2024/02/28 04:34:29;;;;;;;10.30;3.85;;;6.70;99.90;;;;;;5032906;28;20045;-61
2024/02/28 04:36:56;;;;;;;8.77;3.20;;;6.60;99.90;;;;;;5033358;28;20052;-61
2024/02/28 04:39:23;;;;;;;8.40;2.85;;;6.60;99.90;;;;;;5033446;28;20483;-61
2024/02/28 04:41:50;;;;;;;10.40;3.70;;;6.60;99.90;;;;;;5033372;28;20038;-61
2024/02/28 04:44:17;;;;;;;12.55;3.47;;;6.60;99.90;;;;;;5033013;28;20119;-61
2024/02/28 04:46:43;;;;;;;9.35;3.78;;;6.60;99.90;;;;;;5033242;28;20041;-61
2024/02/28 04:49:10;;;;;;;11.52;4.40;;;6.60;99.90;;;;;;5032921;28;20045;-61
2024/02/28 04:51:37;;;;;;;11.88;4.88;;;6.60;99.90;;;;;;5032878;28;20042;-61
2024/02/28 04:54:04;;;;;;;8.80;4.38;;;6.60;99.90;;;;;;5033201;28;20554;-61
2024/02/28 04:56:31;;;;;;;8.35;4.13;;;6.60;99.90;;;;;;5036880;28;20382;-61
2024/02/28 04:58:58;;;;;;;9.02;4.18;;;6.70;99.90;;;;;;5036743;28;20405;-64
2024/02/28 05:01:24;;;;;;;8.98;4.72;;;6.60;99.90;;;;;;5037035;28;20034;-61
2024/02/28 05:03:51;;;;;;;12.05;5.13;;;6.60;99.90;;;;;;5036433;28;20049;-61
2024/02/28 05:06:18;;;;;;;12.48;5.50;;;6.70;99.90;;;;;;5036540;28;20584;-61
2024/02/28 05:08:45;;;;;;;11.82;4.75;;;6.60;99.90;;;;;;5036589;28;20121;-61
2024/02/28 05:11:12;;;;;;;9.60;5.15;;;6.70;99.90;;;;;;5035405;28;20044;-61
2024/02/28 05:13:39;;;;;;;12.60;6.20;;;6.70;99.90;;;;;;5036540;28;20478;-61
2024/02/28 05:16:05;;;;;;;7.93;4.95;;;6.70;99.90;;;;;;5036242;28;20068;-61
2024/02/28 05:18:32;;;;;;;11.68;5.38;;;6.80;99.90;;;;;;5036548;28;20041;-61
2024/02/28 05:20:59;;;;;;;9.60;5.00;;;6.80;99.90;;;;;;5036515;28;20095;-61
2024/02/28 05:23:25;;;;;;;10.48;4.90;;;6.80;99.90;;;;;;5035516;28;20054;-61
2024/02/28 05:25:52;;;;;;;14.60;5.25;;;6.90;99.90;;;;;;5035932;28;20052;-61
2024/02/28 05:28:19;;;;;;;8.38;4.95;;;6.90;99.90;;;;;;5036238;28;20124;-61
2024/02/28 05:30:46;;;;;;;7.43;4.43;;;6.90;99.90;;;;;;5035928;28;20056;-61
2024/02/28 05:33:17;;;;;;;7.80;4.60;;;7.00;99.90;;;;;;5036420;28;20048;-61
2024/02/28 05:35:44;;;;;;;9.40;5.50;;;7.00;99.90;;;;;;5035995;28;20044;-61
2024/02/28 05:38:10;;;;;;;9.00;4.78;;;7.00;99.90;;;;;;5036344;28;20055;-61
2024/02/28 05:40:37;;;;;;;7.03;4.72;;;7.00;99.90;;;;;;5035828;28;20467;-61
2024/02/28 05:43:04;;;;;;;8.13;5.20;;;6.90;99.90;;;;;;5036325;28;20046;-61
2024/02/28 05:45:31;;;;;;;9.15;4.97;;;7.00;99.90;;;;;;5035759;28;20052;-61
2024/02/28 05:47:58;;;;;;;9.38;5.22;;;7.00;99.90;;;;;;5036185;28;20046;-64
2024/02/28 05:50:25;;;;;;;12.30;5.40;;;7.00;99.90;;;;;;5036353;28;20422;-63
2024/02/28 05:52:51;;;;;;;8.75;5.35;;;7.00;99.90;;;;;;5035536;28;20124;-63
2024/02/28 05:55:18;;;;;;;10.38;5.15;;;7.00;99.90;;;;;;5035607;28;20477;-64
2024/02/28 05:57:45;;;;;;;8.40;4.85;;;7.00;99.90;;;;;;5036139;28;20037;-64
2024/02/28 06:00:14;;;;;;;10.10;5.05;;;7.00;99.90;;;;;;5035686;28;20407;-64
2024/02/28 06:02:41;;;;;;;8.15;5.90;;;7.00;99.90;;;;;;5035619;28;20041;-63
2024/02/28 06:05:08;;;;;;;8.10;5.00;;;7.00;99.90;;;;;;5035863;28;20426;-64
2024/02/28 06:07:35;;;;;;;9.98;5.63;;;7.00;99.90;;;;;;5034936;28;20354;-64
2024/02/28 06:10:02;;;;;;;8.38;5.03;;;7.00;99.90;;;;;;5035744;28;20079;-61
2024/02/28 06:12:28;;;;;;;8.43;5.63;;;7.00;99.90;;;;;;5035428;28;20037;-61
2024/02/28 06:14:55;;;;;;;8.93;5.30;;;7.00;99.90;;;;;;5035096;28;20081;-61
2024/02/28 06:17:22;;;;;;;7.70;5.22;;;7.00;99.90;;;;;;5035477;28;20045;-61
2024/02/28 06:19:49;;;;;;;9.77;5.60;;;7.00;99.90;;;;;;5034539;28;20402;-61
2024/02/28 06:22:18;;;;;;;9.15;6.00;;;7.00;99.90;;;;;;5035467;28;20049;-61
2024/02/28 06:24:44;;;;;;;9.27;5.72;;;7.00;99.90;;;;;;5034481;28;20378;-61
2024/02/28 06:27:13;;;;;;;7.45;5.35;;;7.00;99.90;;;;;;5035593;28;20128;-61
2024/02/28 06:29:40;;;;;;;8.10;5.68;;;7.00;99.90;;;;;;5035508;28;20045;-61
2024/02/28 06:32:07;;;;;;;8.25;5.75;;;7.00;99.90;;;;;;5035374;28;20045;-61
2024/02/28 06:34:34;;;;;;;9.32;5.90;;;7.00;99.90;;;;;;5035566;28;20041;-63
2024/02/28 06:37:01;;;;;;;8.98;5.43;;;7.10;99.90;;;;;;5035117;28;20391;-61
2024/02/28 06:39:28;;;;;;;8.32;6.00;;;7.10;99.90;;;;;;5035163;28;20120;-61
2024/02/28 06:41:54;;;;;;;7.57;5.80;;;7.10;99.90;;;;;;5035073;28;20046;-63
2024/02/28 06:44:21;;;;;;;10.10;5.65;;;7.10;99.90;;;;;;5034552;28;20045;-64
2024/02/28 06:46:48;;;;;;;8.73;5.47;;;7.10;99.90;;;;;;5017121;28;20184;-64
2024/02/28 06:49:15;;;;;;;7.10;5.80;;;7.20;99.90;;;;;;5034070;28;20084;-64
2024/02/28 06:51:42;;;;;;;7.72;5.63;;;7.20;99.90;;;;;;5034817;28;20121;-64
2024/02/28 06:54:10;;;;;;;9.98;6.95;;;7.10;99.90;;;;;;5034917;28;20501;-64
2024/02/28 06:56:37;;;;;;;10.75;5.93;;;7.10;99.90;;;;;;5034736;28;20038;-61
2024/02/28 06:59:04;;;;;;;10.02;5.97;;;7.10;99.90;;;;;;5034497;28;20102;-61
2024/02/28 07:01:31;;;;;;;8.75;6.10;;;7.10;99.90;;;;;;5034816;28;20125;-61
2024/02/28 07:03:58;;;;;;;7.45;5.68;;;7.10;99.90;;;;;;5034602;28;20099;-64
2024/02/28 07:06:25;;;;;;;9.18;6.20;;;7.10;99.90;;;;;;5034442;28;20060;-64
2024/02/28 07:08:51;;;;;;;8.55;6.20;;;7.10;99.90;;;;;;5034362;28;20506;-64
2024/02/28 07:11:18;;;;;;;8.35;6.38;;;7.10;99.90;;;;;;5034374;28;20049;-64
2024/02/28 07:13:45;;;;;;;10.23;6.55;;;7.00;99.90;;;;;;5034805;28;20183;-64
2024/02/28 07:16:12;;;;;;;9.52;6.32;;;7.10;99.90;;;;;;5033887;28;20045;-64
2024/02/28 07:18:38;;;;;;;10.32;6.88;;;7.00;99.90;;;;;;5033117;28;20063;-64
2024/02/28 07:21:06;;;;;;;12.80;6.53;;;7.00;99.90;;;;;;5034218;28;20034;-63
2024/02/28 07:23:33;;;;;;;9.73;5.70;;;7.10;99.90;;;;;;5033985;28;20049;-64
2024/02/28 07:26:00;;;;;;;10.30;5.97;;;7.00;99.90;;;;;;5033821;28;20047;-64
2024/02/28 07:28:41;;;;;;;12.32;8.07;;;7.10;99.90;;;;;;5034058;28;20041;-64
2024/02/28 07:31:08;;;;;;;8.77;6.43;;;7.00;99.90;;;;;;5034127;28;20046;-64
2024/02/28 07:33:35;;;;;;;14.13;6.75;;;7.00;99.90;;;;;;5033894;28;20466;-64
2024/02/28 07:36:02;;;;;;;8.25;6.78;;;7.10;99.90;;;;;;5033876;28;20360;-64
2024/02/28 07:38:29;;;;;;;10.95;6.78;;;7.10;99.90;;;;;;5033370;28;20121;-64
2024/02/28 07:40:56;;;;;;;8.88;6.82;;;7.10;99.90;;;;;;5034544;28;20072;-64
2024/02/28 07:43:23;;;;;;;8.98;5.63;;;7.20;99.90;;;;;;5032559;28;20064;-63
2024/02/28 07:45:50;;;;;;;7.78;4.00;;;7.20;99.90;;;;;;5033557;28;20068;-60
2024/02/28 07:48:17;;;;;;;5.07;3.13;;;7.20;99.90;;;;;;5032572;28;20405;-60
2024/02/28 07:50:44;;;;;;;5.18;2.90;;;7.30;99.90;;;;;;5033919;28;20378;-60
2024/02/28 07:53:12;;;;;;;4.93;2.65;;;7.30;99.90;;;;;;5033938;28;20071;-61
2024/02/28 07:55:39;;;;;;;6.35;3.55;;;7.30;99.90;;;;;;5033307;28;20086;-61
2024/02/28 07:58:06;;;;;;;5.50;2.95;;;7.40;99.90;;;;;;5033288;28;20044;-60
2024/02/28 08:00:35;;;;;;;5.78;2.90;;;7.40;99.90;;;;;;5033469;28;20518;-61
2024/02/28 08:03:03;;;;;;;6.18;3.17;;;7.50;99.90;;;;;;5033656;28;20391;-61
2024/02/28 08:05:29;;;;;;;7.07;2.85;;;7.50;99.90;;;;;;5033603;28;20037;-61
2024/02/28 08:07:56;;;;;;;6.30;2.80;;;7.60;99.90;;;;;;5033109;28;20413;-60
2024/02/28 08:10:23;;;;;;;6.70;3.10;;;7.60;99.90;;;;;;5036715;28;20108;-61
2024/02/28 08:12:50;;;;;;;5.55;2.88;;;7.70;99.90;;;;;;5038322;28;20538;-61
2024/02/28 08:15:17;;;;;;;6.90;3.00;;;7.70;99.90;;;;;;5033162;28;20049;-61
2024/02/28 08:17:44;;;;;;;6.93;3.67;;;7.70;99.90;;;;;;5032465;28;20470;-62
2024/02/28 08:20:11;;;;;;;10.27;3.67;;;7.80;99.90;;;;;;5033031;28;20037;-61
2024/02/28 08:22:38;;;;;;;11.45;4.18;;;7.80;99.90;;;;;;5033238;28;20132;-62
2024/02/28 08:25:05;;;;;;;7.85;4.75;;;7.90;99.90;;;;;;5044276;28;20048;-62
2024/02/28 08:27:34;;;;;;;9.10;4.35;;;7.90;99.90;;;;;;5051827;28;20494;-63
2024/02/28 08:30:01;;;;;;;11.07;5.93;;;7.90;99.90;;;;;;5055088;28;20567;-63
2024/02/28 08:32:27;;;;;;;10.27;5.85;;;8.00;99.90;;;;;;5059085;28;20072;-63
2024/02/28 08:34:54;;;;;;;7.90;5.68;;;8.10;99.90;;;;;;5059085;28;20037;-63
2024/02/28 08:37:21;;;;;;;12.30;5.82;;;8.10;99.90;;;;;;5059369;28;20065;-63
2024/02/28 08:39:48;;;;;;;8.73;6.47;;;8.10;99.90;;;;;;5059495;28;20413;-63
2024/02/28 08:42:15;;;;;;;10.02;6.78;;;8.20;99.90;;;;;;5059689;28;20045;-62
2024/02/28 08:44:42;;;;;;;9.23;6.20;;;8.20;99.90;;;;;;5059227;28;20110;-61
2024/02/28 08:47:11;;;;;;;9.40;6.30;;;8.30;99.90;;;;;;5058960;28;20452;-62
2024/02/28 08:49:37;;;;;;;10.63;7.05;;;8.30;99.90;;;;;;5059426;28;20060;-62
2024/02/28 08:52:04;;;;;;;9.93;6.97;;;8.30;99.90;;;;;;5059960;28;20072;-62
2024/02/28 08:54:31;;;;;;;9.73;7.30;;;8.30;99.90;;;;;;5059321;28;20484;-62
2024/02/28 08:56:58;;;;;;;10.85;6.57;;;8.30;99.90;;;;;;5059352;28;20064;-62
2024/02/28 08:59:29;;;;;;;8.57;6.20;;;8.40;99.90;;;;;;5057761;28;20099;-62
2024/02/28 09:01:56;;;;;;;8.05;6.00;;;8.50;99.90;;;;;;5059600;28;20124;-62
2024/02/28 09:04:23;;;;;;;9.63;6.65;;;8.50;99.90;;;;;;5059632;28;20544;-62
2024/02/28 09:06:50;;;;;;;9.77;6.35;;;8.60;99.90;;;;;;5059087;28;20474;-62
2024/02/28 09:09:17;;;;;;;9.48;6.35;;;8.70;99.90;;;;;;5059536;28;20044;-62
2024/02/28 09:11:43;;;;;;;9.68;6.78;;;8.70;99.90;;;;;;5059750;28;20041;-62
2024/02/28 09:14:10;;;;;;;9.32;5.85;;;8.80;99.90;;;;;;5059228;28;20072;-61
2024/02/28 09:16:37;;;;;;;7.18;6.05;;;8.80;99.90;;;;;;5059715;28;20524;-62
2024/02/28 09:19:04;;;;;;;7.53;5.53;;;8.90;99.90;;;;;;5059538;28;20076;-62
2024/02/28 09:21:31;;;;;;;8.93;6.30;;;9.00;99.90;;;;;;5059706;28;20044;-62
2024/02/28 09:23:57;;;;;;;10.02;6.60;;;9.00;99.90;;;;;;5055709;28;20468;-61
2024/02/28 09:26:25;;;;;;;10.32;6.45;;;9.10;99.90;;;;;;5058079;28;20044;-61
2024/02/28 09:28:52;;;;;;;9.65;7.35;;;9.10;99.90;;;;;;5059502;28;20534;-61
2024/02/28 09:31:19;;;;;;;11.60;8.10;;;9.20;99.90;;;;;;5059201;28;20239;-62
2024/02/28 09:33:46;;;;;;;10.90;7.60;;;9.20;99.90;;;;;;5059086;28;20051;-62
2024/02/28 09:36:13;;;;;;;11.95;7.38;;;9.20;99.90;;;;;;5059286;28;20045;-61
2024/02/28 09:38:41;;;;;;;9.20;7.00;;;9.30;99.90;;;;;;5059109;28;20436;-62
2024/02/28 09:41:08;;;;;;;9.73;6.57;;;9.30;99.90;;;;;;5055857;28;20052;-61
2024/02/28 09:43:35;;;;;;;8.60;5.78;;;9.30;99.90;;;;;;5054754;28;20042;-62
2024/02/28 09:46:02;;;;;;;7.95;5.90;;;9.40;99.90;;;;;;5054345;28;20045;-62
2024/02/28 09:48:29;;;;;;;8.35;5.95;;;9.40;99.90;;;;;;5056401;28;20086;-62
2024/02/28 09:50:55;;;;;;;8.07;4.88;;;9.50;99.90;;;;;;5056004;28;20124;-62
2024/02/28 09:53:22;;;;;;;6.75;5.22;;;9.50;99.90;;;;;;5055681;28;20501;-62
2024/02/28 09:55:49;;;;;;;7.25;5.28;;;9.50;99.90;;;;;;5054649;28;20064;-62
2024/02/28 09:58:16;;;;;;;7.00;5.43;;;9.50;99.90;;;;;;5054288;28;20072;-62
2024/02/28 10:00:43;;;;;;;6.55;4.80;;;9.60;99.90;;;;;;5055815;28;20041;-63
2024/02/28 10:03:11;;;;;;;8.07;5.55;;;9.60;99.90;;;;;;5055928;28;20037;-63
2024/02/28 10:05:38;;;;;;;7.15;5.05;;;9.60;99.90;;;;;;5055369;28;20049;-63
2024/02/28 10:08:05;;;;;;;7.43;5.25;;;9.60;99.90;;;;;;5055429;28;20044;-63
2024/02/28 10:10:32;;;;;;;7.13;5.28;;;9.70;99.90;;;;;;5055488;28;20044;-63
2024/02/28 10:12:59;;;;;;;10.07;5.15;;;9.70;99.90;;;;;;5053948;28;20072;-63
2024/02/28 10:15:26;;;;;;;10.55;4.90;;;9.70;99.90;;;;;;5054991;28;20041;-62
2024/02/28 10:17:52;;;;;;;7.90;4.32;;;9.70;99.90;;;;;;5054351;28;20474;-62
2024/02/28 10:20:19;;;;;;;9.10;4.65;;;9.70;99.90;;;;;;5055342;28;20051;-62
2024/02/28 10:22:46;;;;;;;6.85;4.43;;;9.70;99.90;;;;;;5055100;28;20045;-62
2024/02/28 10:25:13;;;;;;;5.57;4.47;;;9.80;99.90;;;;;;5054070;28;20055;-63
2024/02/28 10:27:40;;;;;;;6.60;3.90;;;9.80;99.90;;;;;;5054002;28;20044;-62
2024/02/28 10:30:07;;;;;;;6.43;3.88;;;9.80;99.90;;;;;;5055239;28;20052;-63
2024/02/28 10:32:35;;;;;;;7.57;3.67;;;9.90;99.90;;;;;;5053610;28;20041;-63
2024/02/28 10:35:02;;;;;;;7.57;3.63;;;9.90;99.90;;;;;;5035660;28;20437;-64
2024/02/28 10:37:35;;;;;;;6.45;3.55;;;9.90;99.90;;;;;;5014467;28;20042;-63
2024/02/28 10:40:02;;;;;;;7.00;3.63;;;9.90;99.90;;;;;;5026123;28;20038;-64
2024/02/28 10:42:29;;;;;;;8.77;3.95;;;10.00;99.90;;;;;;5046800;28;20045;-64
2024/02/28 10:44:56;;;;;;;6.78;3.45;;;10.00;99.90;;;;;;5054431;28;20080;-63
2024/02/28 10:47:43;;;;;;;4.88;3.78;;;10.10;99.90;;;;;;5040291;28;20079;-64
2024/02/28 10:50:10;;;;;;;6.38;3.03;;;10.10;99.90;;;;;;5034282;28;20045;-64
2024/02/28 10:52:37;;;;;;;8.15;3.40;;;10.10;99.90;;;;;;5034209;28;20383;-64
2024/02/28 10:55:04;;;;;;;5.45;3.35;;;10.20;99.90;;;;;;5033933;28;20092;-63
2024/02/28 10:57:31;;;;;;;5.28;2.53;;;10.20;99.90;;;;;;5034389;28;20041;-64
2024/02/28 10:59:57;;;;;;;7.47;2.70;;;10.30;99.90;;;;;;5034404;28;20445;-63
2024/02/28 11:02:24;;;;;;;5.90;2.58;;;10.30;99.90;;;;;;5034203;28;20072;-61
2024/02/28 11:04:51;;;;;;;5.75;3.83;;;10.40;99.90;;;;;;5034153;28;20050;-61
2024/02/28 11:07:18;;;;;;;7.70;4.53;;;10.40;99.90;;;;;;5032560;28;20410;-61
2024/02/28 11:09:46;;;;;;;4.68;3.10;;;10.40;99.90;;;;;;5033958;28;20521;-62
2024/02/28 11:12:13;;;;;;;4.70;2.30;;;10.40;99.90;;;;;;5033720;28;20033;-63
2024/02/28 11:14:40;;;;;;;4.57;2.20;;;10.40;99.90;;;;;;5038442;28;20050;-62
2024/02/28 11:17:08;;;;;;;4.30;2.17;;;10.50;99.90;;;;;;5033722;28;20073;-63
2024/02/28 11:19:35;;;;;;;4.70;1.95;;;10.60;99.90;;;;;;5033935;28;20083;-62
2024/02/28 11:22:03;;;;;;;4.05;2.00;;;10.60;99.90;;;;;;5033522;28;20045;-61
2024/02/28 11:24:31;;;;;;;4.72;2.15;;;10.70;99.90;;;;;;5033570;28;20064;-60
2024/02/28 11:26:58;;;;;;;5.53;1.90;;;10.70;99.90;;;;;;5033510;28;20116;-60
2024/02/28 11:29:24;;;;;;;5.90;1.83;;;10.80;99.90;;;;;;5033761;28;20049;-61
2024/02/28 11:31:51;;;;;;;7.00;2.25;;;10.90;99.90;;;;;;5033496;28;20103;-60
2024/02/28 11:34:18;;;;;;;4.70;2.00;;;10.90;99.90;;;;;;5033629;28;20049;-60
2024/02/28 11:36:45;;;;;;;6.03;1.70;;;11.00;99.90;;;;;;5031957;28;20037;-60
2024/02/28 11:39:12;;;;;;;5.50;2.50;;;11.10;99.90;;;;;;5033601;28;20041;-61
2024/02/28 11:41:39;;;;;;;6.18;2.10;;;11.00;99.90;;;;;;5033392;28;20037;-60
2024/02/28 11:44:06;;;;;;;5.20;1.90;;;11.10;99.90;;;;;;5035753;28;20041;-60
2024/02/28 11:46:33;;;;;;;5.05;1.80;;;11.20;99.90;;;;;;5033061;28;20045;-60
2024/02/28 11:49:00;;;;;;;8.80;2.15;;;11.20;99.90;;;;;;5033263;28;20486;-59
2024/02/28 11:51:27;;;;;;;3.78;1.80;;;11.30;99.90;;;;;;5032986;28;20457;-62
2024/02/28 11:53:53;;;;;;;4.00;1.65;;;11.40;99.90;;;;;;5033196;28;20121;-61
2024/02/28 11:56:21;;;;;;;5.82;1.73;;;11.50;99.90;;;;;;5033264;28;20132;-61
2024/02/28 11:58:48;;;;;;;5.15;1.50;;;11.60;99.90;;;;;;5033196;28;20034;-60
2024/02/28 12:01:15;;;;;;;3.65;1.42;;;11.60;99.90;;;;;;5033028;28;20038;-62
2024/02/28 12:03:42;;;;;;;4.25;1.63;;;11.80;99.90;;;;;;5032956;28;20075;-62
2024/02/28 12:06:09;;;;;;;4.03;1.30;;;11.80;99.90;;;;;;5032511;28;20057;-62
2024/02/28 12:08:35;;;;;;;5.65;1.60;;;11.90;99.90;;;;;;5033098;28;20052;-62
2024/02/28 12:11:02;;;;;;;4.40;1.40;;;12.00;99.90;;;;;;5033076;28;20046;-62
2024/02/28 12:13:29;;;;;;;7.25;1.50;;;12.00;99.90;;;;;;5034637;28;20502;-62
2024/02/28 12:15:56;;;;;;;6.63;1.75;;;12.10;99.90;;;;;;5033661;28;20060;-62
2024/02/28 12:18:23;;;;;;;8.30;2.40;;;12.10;99.90;;;;;;5032756;28;20495;-62
2024/02/28 12:20:50;;;;;;;6.18;1.50;;;12.10;99.90;;;;;;5033467;28;20156;-62
2024/02/28 12:23:17;;;;;;;5.95;1.58;;;12.10;99.90;;;;;;5032629;28;20091;-62
2024/02/28 12:25:45;;;;;;;4.95;1.33;;;12.10;99.90;;;;;;5032925;28;20072;-63
2024/02/28 12:28:13;;;;;;;6.40;1.40;;;12.10;99.90;;;;;;5032784;28;20057;-62
2024/02/28 12:30:39;;;;;;;4.50;1.83;;;12.10;99.90;;;;;;5033295;28;20059;-62
2024/02/28 12:33:06;;;;;;;4.40;1.42;;;12.10;99.90;;;;;;5032635;28;20099;-62
2024/02/28 12:35:33;;;;;;;6.43;1.63;;;12.20;99.90;;;;;;5032655;28;20060;-62
2024/02/28 12:38:00;;;;;;;4.75;1.58;;;12.20;99.90;;;;;;5031604;28;20092;-62
2024/02/28 12:40:26;;;;;;;5.88;1.30;;;12.30;99.90;;;;;;5031534;28;20049;-62
2024/02/28 12:42:53;;;;;;;4.38;1.35;;;12.30;99.90;;;;;;5032417;28;20475;-62
2024/02/28 12:45:20;;;;;;;4.90;1.33;;;12.30;99.90;;;;;;5038403;28;20100;-61
2024/02/28 12:47:48;;;;;;;6.85;1.80;;;12.30;99.90;;;;;;5033543;28;20107;-62
2024/02/28 12:50:16;;;;;;;7.60;1.75;;;12.40;99.90;;;;;;5034188;28;20041;-62
2024/02/28 12:52:43;;;;;;;5.57;1.48;;;12.30;99.90;;;;;;5032891;28;20494;-62